createdAt,value
2023-03-07T00:00:29.846Z,13.60
2023-03-07T00:03:16.202Z,11.60
2023-03-07T00:05:45.349Z,12.90
2023-03-07T00:08:14.135Z,16.80
2023-03-07T00:10:42.495Z,14.60
2023-03-07T00:13:10.691Z,12.80
2023-03-07T00:15:40.708Z,17.70
2023-03-07T00:18:09.012Z,14.00
2023-03-07T00:20:37.803Z,14.00
2023-03-07T00:23:06.063Z,17.10
2023-03-07T00:25:34.149Z,18.00
2023-03-07T00:28:02.424Z,14.60
2023-03-07T00:30:30.616Z,13.80
2023-03-07T00:32:59.302Z,15.80
2023-03-07T00:35:27.554Z,14.60
2023-03-07T00:37:55.953Z,13.00
2023-03-07T00:40:24.729Z,11.80
2023-03-07T00:42:53.410Z,10.20
2023-03-07T00:45:22.406Z,11.30
2023-03-07T00:47:52.112Z,12.50
2023-03-07T00:50:20.914Z,12.60
2023-03-07T00:52:49.853Z,10.50
2023-03-07T00:55:18.491Z,11.70
2023-03-07T00:57:46.863Z,10.50
2023-03-07T01:00:15.450Z,11.80
2023-03-07T01:02:44.487Z,12.20
2023-03-07T01:05:13.173Z,11.40
2023-03-07T01:07:41.720Z,14.10
2023-03-07T01:10:10.552Z,12.80
2023-03-07T01:12:39.094Z,13.90
2023-03-07T01:15:08.144Z,13.50
2023-03-07T01:17:36.452Z,11.80
2023-03-07T01:20:07.403Z,14.60
2023-03-07T01:22:36.727Z,13.40
2023-03-07T01:25:07.081Z,14.30
2023-03-07T01:27:36.417Z,15.10
2023-03-07T01:30:06.763Z,12.50
2023-03-07T01:32:36.101Z,14.30
2023-03-07T01:35:05.492Z,14.70
2023-03-07T01:37:33.708Z,12.80
2023-03-07T01:40:02.087Z,12.70
2023-03-07T01:42:32.564Z,13.50
2023-03-07T01:45:04.270Z,11.70
2023-03-07T01:47:43.618Z,11.80
2023-03-07T01:50:17.754Z,12.30
2023-03-07T01:52:52.957Z,10.60
2023-03-07T01:55:28.899Z,10.10
2023-03-07T01:58:09.172Z,13.10
2023-03-07T02:00:39.449Z,12.90
2023-03-07T02:03:10.876Z,12.00
2023-03-07T02:05:47.807Z,11.80
2023-03-07T02:08:19.110Z,12.70
2023-03-07T02:10:48.162Z,13.10
2023-03-07T02:13:16.837Z,11.50
2023-03-07T02:15:45.339Z,11.50
2023-03-07T02:18:18.830Z,31.10
2023-03-07T02:21:09.572Z,36.00
2023-03-07T02:23:58.793Z,24.70
2023-03-07T02:26:31.545Z,25.30
2023-03-07T02:29:01.047Z,29.70
2023-03-07T02:31:30.240Z,27.40
2023-03-07T02:33:59.241Z,26.20
2023-03-07T02:36:34.721Z,19.20
2023-03-07T02:39:09.962Z,15.90
2023-03-07T02:41:40.592Z,15.30
2023-03-07T02:44:18.544Z,15.50
2023-03-07T02:46:47.979Z,21.60
2023-03-07T02:49:16.434Z,18.90
2023-03-07T02:51:45.666Z,20.90
2023-03-07T02:54:14.309Z,19.40
2023-03-07T02:56:42.798Z,21.90
2023-03-07T02:59:12.757Z,19.70
2023-03-07T03:01:41.517Z,23.20
2023-03-07T03:04:10.121Z,19.90
2023-03-07T03:06:38.466Z,16.10
2023-03-07T03:09:06.781Z,16.60
2023-03-07T03:11:35.333Z,22.20
2023-03-07T03:14:06.077Z,21.80
2023-03-07T03:16:34.292Z,19.60
2023-03-07T03:19:02.740Z,22.10
2023-03-07T03:21:31.504Z,20.30
2023-03-07T03:24:09.002Z,18.90
2023-03-07T03:26:38.964Z,20.80
2023-03-07T03:29:07.645Z,20.80
2023-03-07T03:31:35.863Z,24.70
2023-03-07T03:34:05.903Z,23.70
2023-03-07T03:36:34.773Z,20.00
2023-03-07T03:39:11.239Z,21.00
2023-03-07T03:41:45.214Z,20.80
2023-03-07T03:44:13.754Z,20.50
2023-03-07T03:46:42.538Z,17.80
2023-03-07T03:49:13.645Z,19.60
2023-03-07T03:51:42.099Z,19.60
2023-03-07T03:54:10.533Z,14.70
2023-03-07T03:56:38.962Z,20.50
2023-03-07T03:59:07.993Z,21.00
2023-03-07T04:01:36.384Z,22.40
2023-03-07T04:04:05.828Z,23.30
2023-03-07T04:06:35.472Z,23.80
2023-03-07T04:09:05.486Z,22.80
2023-03-07T04:11:34.192Z,23.10
2023-03-07T04:14:03.276Z,22.20
2023-03-07T04:16:32.155Z,20.30
2023-03-07T04:19:01.082Z,23.10
2023-03-07T04:21:29.495Z,28.30
2023-03-07T04:23:59.908Z,27.20
2023-03-07T04:26:32.859Z,29.10
2023-03-07T04:29:02.214Z,27.90
2023-03-07T04:31:33.438Z,29.70
2023-03-07T04:34:04.502Z,25.70
2023-03-07T04:36:33.741Z,28.20
2023-03-07T04:39:02.255Z,30.80
2023-03-07T04:41:32.717Z,30.90
2023-03-07T04:44:08.251Z,34.10
2023-03-07T04:46:37.163Z,24.30
2023-03-07T04:49:05.646Z,25.10
2023-03-07T04:51:34.912Z,27.40
2023-03-07T04:54:03.646Z,28.10
2023-03-07T04:56:32.704Z,26.40
2023-03-07T04:59:01.930Z,27.20
2023-03-07T05:01:30.861Z,28.50
2023-03-07T05:04:00.182Z,27.80
2023-03-07T05:06:29.644Z,26.60
2023-03-07T05:08:59.217Z,29.30
2023-03-07T05:11:29.095Z,25.30
2023-03-07T05:13:58.156Z,31.00
2023-03-07T05:16:26.484Z,34.20
2023-03-07T05:18:55.185Z,31.50
2023-03-07T05:21:23.910Z,28.60
2023-03-07T05:23:52.498Z,24.60
2023-03-07T05:26:21.384Z,30.80
2023-03-07T05:28:49.590Z,21.40
2023-03-07T05:31:18.634Z,23.60
2023-03-07T05:33:47.697Z,22.40
2023-03-07T05:36:17.638Z,26.70
2023-03-07T05:38:46.543Z,24.60
2023-03-07T05:41:15.484Z,24.70
2023-03-07T05:43:45.092Z,28.10
2023-03-07T05:46:14.036Z,30.20
2023-03-07T05:48:43.458Z,29.00
2023-03-07T05:51:15.904Z,27.00
2023-03-07T05:53:44.274Z,28.20
2023-03-07T05:56:12.869Z,23.60
2023-03-07T05:58:42.196Z,26.20
2023-03-07T06:01:11.404Z,24.10
2023-03-07T06:03:40.840Z,29.60
2023-03-07T06:06:09.312Z,30.30
2023-03-07T06:08:37.501Z,32.10
2023-03-07T06:11:06.392Z,29.10
2023-03-07T06:13:39.061Z,30.10
2023-03-07T06:16:07.340Z,33.70
2023-03-07T06:18:37.942Z,27.20
2023-03-07T06:21:08.410Z,26.90
2023-03-07T06:23:40.939Z,29.90
2023-03-07T06:26:13.417Z,29.90
2023-03-07T06:28:43.464Z,36.20
2023-03-07T06:31:15.959Z,36.10
2023-03-07T06:33:46.014Z,35.10
2023-03-07T06:36:17.356Z,35.70
2023-03-07T06:38:48.826Z,31.40
2023-03-07T06:41:17.337Z,31.60
2023-03-07T06:43:46.654Z,30.20
2023-03-07T06:46:17.045Z,30.50
2023-03-07T06:48:45.791Z,31.30
2023-03-07T06:51:17.813Z,29.40
2023-03-07T06:53:47.379Z,27.70
2023-03-07T06:56:16.064Z,29.00
2023-03-07T06:58:44.771Z,24.60
2023-03-07T07:01:24.061Z,31.30
2023-03-07T07:03:53.946Z,26.60
2023-03-07T07:06:22.696Z,27.00
2023-03-07T07:08:55.718Z,35.50
2023-03-07T07:11:26.122Z,28.00
2023-03-07T07:13:55.404Z,33.30
2023-03-07T07:16:24.892Z,32.80
2023-03-07T07:18:53.708Z,32.10
2023-03-07T07:21:22.905Z,34.40
2023-03-07T07:23:52.030Z,32.40
2023-03-07T07:26:21.785Z,34.80
2023-03-07T07:28:50.627Z,33.10
2023-03-07T07:31:18.887Z,35.70
2023-03-07T07:33:47.130Z,34.40
2023-03-07T07:36:16.356Z,32.10
2023-03-07T07:38:45.497Z,31.80
2023-03-07T07:41:15.369Z,37.40
2023-03-07T07:43:48.646Z,43.80
2023-03-07T07:46:24.779Z,38.00
2023-03-07T07:48:53.380Z,34.40
2023-03-07T07:51:22.386Z,36.70
2023-03-07T07:53:52.321Z,39.80
2023-03-07T07:56:21.735Z,45.20
2023-03-07T07:58:51.413Z,38.50
2023-03-07T08:01:23.856Z,33.10
2023-03-07T08:03:54.170Z,38.40
2023-03-07T08:06:26.401Z,35.90
2023-03-07T08:08:55.943Z,39.00
2023-03-07T08:11:24.781Z,35.60
2023-03-07T08:13:53.340Z,23.40
2023-03-07T08:16:24.384Z,16.60
2023-03-07T08:18:58.106Z,18.00
2023-03-07T08:21:28.665Z,11.40
2023-03-07T08:23:58.082Z,12.20
2023-03-07T08:26:27.362Z,12.80
2023-03-07T08:28:59.353Z,12.40
2023-03-07T08:31:29.023Z,12.80
2023-03-07T08:33:58.350Z,15.50
2023-03-07T08:36:27.224Z,16.80
2023-03-07T08:38:56.799Z,14.80
2023-03-07T08:41:26.202Z,31.60
2023-03-07T08:43:56.180Z,14.70
2023-03-07T08:46:26.630Z,16.40
2023-03-07T08:48:56.850Z,18.50
2023-03-07T08:51:26.961Z,58.70
2023-03-07T08:53:58.117Z,19.20
2023-03-07T08:56:27.820Z,26.30
2023-03-07T08:58:56.510Z,18.10
2023-03-07T09:01:31.422Z,12.40
2023-03-07T09:04:05.652Z,13.50
2023-03-07T09:06:35.858Z,12.90
2023-03-07T09:09:06.202Z,16.40
2023-03-07T09:11:34.665Z,12.90
2023-03-07T09:14:03.094Z,15.00
2023-03-07T09:16:31.983Z,12.70
2023-03-07T09:19:00.403Z,14.60
2023-03-07T09:21:28.753Z,13.20
2023-03-07T09:23:56.871Z,16.00
2023-03-07T09:26:25.190Z,17.80
2023-03-07T09:28:53.593Z,13.00
2023-03-07T09:31:21.956Z,11.90
2023-03-07T09:33:51.296Z,12.50
2023-03-07T09:36:20.375Z,14.70
2023-03-07T09:38:48.792Z,12.30
2023-03-07T09:41:42.276Z,12.80
2023-03-07T09:44:11.201Z,13.60
2023-03-07T09:47:36.561Z,12.70
2023-03-07T09:50:14.181Z,12.30
2023-03-07T09:52:44.214Z,11.90
2023-03-07T09:55:17.751Z,17.60
2023-03-07T09:57:55.723Z,16.80
2023-03-07T10:00:32.345Z,13.00
2023-03-07T10:03:18.658Z,12.90
2023-03-07T10:08:32.220Z,12.70
2023-03-07T10:11:40.803Z,11.90
2023-03-07T10:14:16.208Z,14.00
2023-03-07T10:17:03.874Z,15.50
2023-03-07T10:19:44.677Z,13.90
2023-03-07T10:22:27.476Z,12.20
2023-03-07T10:25:08.780Z,14.50
2023-03-07T10:27:39.184Z,9.90
2023-03-07T10:30:16.206Z,21.60
2023-03-07T10:32:49.269Z,11.90
2023-03-07T10:35:38.458Z,13.40
2023-03-07T10:38:45.455Z,20.20
2023-03-07T10:41:17.520Z,11.50
2023-03-07T10:43:46.730Z,10.60
2023-03-07T10:46:26.590Z,10.70
2023-03-07T10:49:14.983Z,12.40
2023-03-07T10:52:07.015Z,22.10
2023-03-07T10:54:38.403Z,12.20
2023-03-07T10:57:16.632Z,9.30
2023-03-07T10:59:50.724Z,12.80
2023-03-07T11:02:44.946Z,9.10
2023-03-07T11:05:33.997Z,16.10
2023-03-07T11:08:22.005Z,15.10
2023-03-07T11:10:50.588Z,14.10
2023-03-07T11:13:21.815Z,19.80
2023-03-07T11:15:57.925Z,11.80
2023-03-07T11:18:41.290Z,13.20
2023-03-07T11:21:30.476Z,14.10
2023-03-07T11:24:25.827Z,16.60
2023-03-07T11:26:56.508Z,13.90
2023-03-07T11:29:26.310Z,26.70
2023-03-07T11:32:14.591Z,30.80
2023-03-07T11:34:43.224Z,19.40
2023-03-07T11:37:53.756Z,14.20
2023-03-07T11:40:43.086Z,22.50
2023-03-07T11:43:42.391Z,17.20
2023-03-07T11:46:52.862Z,13.00
2023-03-07T11:49:24.896Z,14.80
2023-03-07T11:52:08.411Z,28.40
2023-03-07T11:54:57.539Z,14.00
2023-03-07T11:57:53.028Z,20.00
2023-03-07T12:00:52.422Z,17.40
2023-03-07T12:03:39.938Z,4.00
2023-03-07T12:06:23.802Z,12.10
2023-03-07T12:09:24.292Z,13.60
2023-03-07T12:12:21.327Z,13.00
2023-03-07T12:15:15.050Z,10.10
2023-03-07T12:17:55.904Z,9.20
2023-03-07T12:20:56.232Z,14.30
2023-03-07T12:23:36.795Z,12.40
2023-03-07T12:26:42.247Z,7.40
2023-03-07T12:29:24.649Z,8.00
2023-03-07T12:31:59.507Z,5.00
2023-03-07T12:34:39.429Z,4.70
2023-03-07T12:37:18.560Z,7.60
2023-03-07T12:40:06.171Z,15.80
2023-03-07T12:42:41.109Z,14.20
2023-03-07T12:45:19.007Z,6.90
2023-03-07T12:48:32.199Z,10.20
2023-03-07T12:51:21.254Z,11.00
2023-03-07T12:54:15.523Z,13.00
2023-03-07T12:56:53.348Z,11.80
2023-03-07T12:59:22.270Z,15.50
2023-03-07T13:02:08.692Z,7.60
2023-03-07T13:04:39.674Z,14.40
2023-03-07T13:07:13.023Z,15.20
2023-03-07T13:09:44.819Z,14.30
2023-03-07T13:12:13.152Z,11.70
2023-03-07T13:14:44.751Z,12.30
2023-03-07T13:17:35.907Z,10.10
2023-03-07T13:20:19.709Z,10.50
2023-03-07T13:22:48.084Z,14.60
2023-03-07T13:25:36.203Z,13.60
2023-03-07T13:28:26.170Z,18.90
2023-03-07T13:31:30.544Z,13.20
2023-03-07T13:34:43.809Z,12.20
2023-03-07T13:37:52.709Z,13.50
2023-03-07T13:40:37.090Z,14.40
2023-03-07T13:43:27.812Z,16.30
2023-03-07T13:46:46.118Z,12.40
2023-03-07T13:49:43.261Z,15.50
2023-03-07T13:52:17.918Z,14.70
2023-03-07T13:54:51.017Z,17.20
2023-03-07T13:57:21.662Z,13.30
2023-03-07T13:59:50.443Z,15.50
2023-03-07T14:02:20.667Z,13.60
2023-03-07T14:04:55.823Z,12.30
2023-03-07T14:07:35.167Z,11.70
2023-03-07T14:10:24.387Z,14.10
2023-03-07T14:13:36.287Z,13.10
2023-03-07T14:16:33.787Z,25.90
2023-03-07T14:19:29.325Z,13.90
2023-03-07T14:22:04.129Z,14.20
2023-03-07T14:25:02.342Z,13.10
2023-03-07T14:27:32.008Z,14.90
2023-03-07T14:30:00.787Z,14.20
2023-03-07T14:32:31.306Z,14.50
2023-03-07T14:35:00.307Z,9.40
2023-03-07T14:37:30.506Z,9.30
2023-03-07T14:39:58.897Z,14.30
2023-03-07T14:43:04.501Z,21.10
2023-03-07T14:45:50.001Z,29.40
2023-03-07T14:48:52.028Z,21.00
2023-03-07T14:51:26.240Z,24.60
2023-03-07T14:53:56.474Z,18.30
2023-03-07T14:56:34.772Z,12.70
2023-03-07T14:59:04.913Z,11.00
2023-03-07T15:01:37.271Z,15.60
2023-03-07T15:04:25.185Z,11.40
2023-03-07T15:06:59.288Z,13.60
2023-03-07T15:09:29.079Z,15.40
2023-03-07T15:12:10.585Z,12.90
2023-03-07T15:14:44.594Z,15.40
2023-03-07T15:17:28.458Z,11.70
2023-03-07T15:19:59.390Z,12.40
2023-03-07T15:22:33.817Z,12.50
2023-03-07T15:25:02.259Z,15.80
2023-03-07T15:27:32.299Z,15.70
2023-03-07T15:30:03.478Z,18.90
2023-03-07T15:32:40.449Z,20.30
2023-03-07T15:35:09.300Z,12.20
2023-03-07T15:38:00.121Z,13.20
2023-03-07T15:40:34.023Z,18.00
2023-03-07T15:43:05.450Z,16.10
2023-03-07T15:45:39.823Z,15.60
2023-03-07T15:48:19.499Z,17.10
2023-03-07T15:50:54.028Z,15.40
2023-03-07T15:53:35.349Z,17.50
2023-03-07T15:56:22.974Z,14.50
2023-03-07T15:58:54.157Z,13.40
2023-03-07T16:01:25.624Z,25.90
2023-03-07T16:03:57.110Z,16.40
2023-03-07T16:06:33.096Z,14.00
2023-03-07T16:09:01.769Z,20.00
2023-03-07T16:11:31.896Z,21.20
2023-03-07T16:14:00.923Z,15.00
2023-03-07T16:16:31.614Z,19.00
2023-03-07T16:19:00.170Z,18.40
2023-03-07T16:21:28.588Z,14.70
2023-03-07T16:23:57.498Z,18.40
2023-03-07T16:26:31.950Z,19.20
2023-03-07T16:29:01.727Z,17.60
2023-03-07T16:31:30.219Z,12.60
2023-03-07T16:33:58.773Z,18.20
2023-03-07T16:36:27.201Z,16.10
2023-03-07T16:38:55.763Z,15.30
2023-03-07T16:41:24.201Z,14.60
2023-03-07T16:43:57.634Z,23.10
2023-03-07T16:46:26.700Z,15.70
2023-03-07T16:48:55.276Z,19.10
2023-03-07T16:51:26.249Z,21.00
2023-03-07T16:53:57.198Z,18.80
2023-03-07T16:56:53.991Z,23.30
2023-03-07T16:59:27.662Z,23.80
2023-03-07T17:01:56.020Z,24.60
2023-03-07T17:04:24.536Z,22.50
2023-03-07T17:07:04.115Z,24.70
2023-03-07T17:09:33.642Z,29.10
2023-03-07T17:12:01.900Z,23.00
2023-03-07T17:14:32.486Z,21.60
2023-03-07T17:17:01.220Z,26.90
2023-03-07T17:19:31.929Z,25.70
2023-03-07T17:22:02.072Z,29.10
2023-03-07T17:24:31.381Z,23.10
2023-03-07T17:27:03.711Z,22.60
2023-03-07T17:29:42.794Z,24.90
2023-03-07T17:32:11.896Z,29.00
2023-03-07T17:34:40.268Z,20.50
2023-03-07T17:37:10.983Z,20.20
2023-03-07T17:39:40.149Z,20.40
2023-03-07T17:42:08.420Z,21.90
2023-03-07T17:44:36.807Z,20.70
2023-03-07T17:47:05.443Z,17.80
2023-03-07T17:49:38.556Z,19.40
2023-03-07T17:52:07.890Z,25.50
2023-03-07T17:54:36.261Z,20.30
2023-03-07T17:57:04.439Z,16.80
2023-03-07T17:59:32.985Z,22.40
2023-03-07T18:02:01.388Z,18.90
2023-03-07T18:04:31.555Z,21.10
2023-03-07T18:07:00.504Z,17.20
2023-03-07T18:09:29.125Z,19.40
2023-03-07T18:11:57.746Z,20.20
2023-03-07T18:14:26.980Z,22.90
2023-03-07T18:16:55.389Z,21.60
2023-03-07T18:19:26.957Z,26.60
2023-03-07T18:21:55.647Z,27.40
2023-03-07T18:24:26.915Z,26.70
2023-03-07T18:26:56.208Z,31.80
2023-03-07T18:29:24.981Z,28.30
2023-03-07T18:31:53.725Z,31.80
2023-03-07T18:34:22.621Z,39.50
2023-03-07T18:36:53.007Z,32.80
2023-03-07T18:39:22.892Z,40.80
2023-03-07T18:41:51.108Z,35.40
2023-03-07T18:44:19.898Z,39.20
2023-03-07T18:46:48.662Z,34.40
2023-03-07T18:49:17.998Z,34.90
2023-03-07T18:51:46.430Z,31.10
2023-03-07T18:54:15.576Z,27.60
2023-03-07T18:56:48.126Z,29.50
2023-03-07T18:59:17.854Z,37.10
2023-03-07T19:01:50.489Z,30.20
2023-03-07T19:04:19.186Z,42.30
2023-03-07T19:06:48.449Z,29.90
2023-03-07T19:09:20.690Z,31.30
2023-03-07T19:11:48.839Z,32.90
2023-03-07T19:14:17.356Z,31.60
2023-03-07T19:16:45.659Z,38.20
2023-03-07T19:19:13.904Z,36.80
2023-03-07T19:21:43.201Z,47.60
2023-03-07T19:24:12.304Z,54.10
2023-03-07T19:26:41.737Z,60.30
2023-03-07T19:29:12.309Z,58.70
2023-03-07T19:31:44.071Z,48.00
2023-03-07T19:34:12.504Z,39.10
2023-03-07T19:36:41.888Z,41.60
2023-03-07T19:39:15.170Z,36.70
2023-03-07T19:41:45.617Z,38.80
2023-03-07T19:44:14.916Z,36.60
2023-03-07T19:46:46.524Z,35.10
2023-03-07T19:49:18.033Z,37.80
2023-03-07T19:51:46.164Z,46.90
2023-03-07T19:54:15.680Z,43.60
2023-03-07T19:56:45.846Z,39.40
2023-03-07T19:59:14.078Z,42.20
2023-03-07T20:01:42.989Z,44.70
2023-03-07T20:04:16.394Z,34.10
2023-03-07T20:06:45.144Z,32.40
2023-03-07T20:09:14.476Z,29.70
2023-03-07T20:11:43.472Z,31.00
2023-03-07T20:14:12.927Z,33.00
2023-03-07T20:16:41.613Z,29.90
2023-03-07T20:19:14.206Z,39.30
2023-03-07T20:21:49.677Z,35.00
2023-03-07T20:24:18.919Z,35.10
2023-03-07T20:26:48.082Z,33.00
2023-03-07T20:29:16.130Z,33.00
2023-03-07T20:31:44.449Z,31.40
2023-03-07T20:34:12.604Z,30.80
2023-03-07T20:36:42.524Z,31.50
2023-03-07T20:39:14.698Z,33.20
2023-03-07T20:41:44.160Z,33.30
2023-03-07T20:44:15.144Z,34.60
2023-03-07T20:46:43.549Z,30.00
2023-03-07T20:49:14.263Z,29.90
2023-03-07T20:51:43.582Z,31.60
2023-03-07T20:54:14.799Z,32.20
2023-03-07T20:56:44.976Z,34.70
2023-03-07T20:59:15.697Z,35.00
2023-03-07T21:01:44.651Z,34.20
2023-03-07T21:04:15.233Z,38.80
2023-03-07T21:06:44.786Z,38.30
2023-03-07T21:09:15.063Z,36.50
2023-03-07T21:11:45.765Z,40.00
2023-03-07T21:14:15.413Z,33.40
2023-03-07T21:16:44.692Z,26.70
2023-03-07T21:19:13.357Z,29.40
2023-03-07T21:21:41.900Z,26.30
2023-03-07T21:24:12.510Z,29.20
2023-03-07T21:26:40.911Z,28.20
2023-03-07T21:29:10.972Z,30.10
2023-03-07T21:31:39.989Z,30.10
2023-03-07T21:34:11.923Z,30.40
2023-03-07T21:36:40.363Z,30.20
2023-03-07T21:39:10.204Z,30.90
2023-03-07T21:41:38.560Z,32.80
2023-03-07T21:44:06.747Z,28.00
2023-03-07T21:46:35.002Z,28.70
2023-03-07T21:49:03.745Z,30.50
2023-03-07T21:51:32.312Z,34.50
2023-03-07T21:54:00.438Z,28.50
2023-03-07T21:56:28.763Z,31.60
2023-03-07T21:58:57.151Z,32.50
2023-03-07T22:01:28.911Z,31.70
2023-03-07T22:03:59.573Z,33.60
2023-03-07T22:06:28.928Z,35.50
2023-03-07T22:08:59.182Z,32.70
2023-03-07T22:11:28.049Z,33.50
2023-03-07T22:13:56.280Z,37.90
2023-03-07T22:16:24.765Z,40.80
2023-03-07T22:18:57.238Z,35.00
2023-03-07T22:21:26.865Z,30.80
2023-03-07T22:23:58.376Z,35.20
2023-03-07T22:26:28.407Z,34.30
2023-03-07T22:28:58.018Z,32.10
2023-03-07T22:31:27.147Z,40.20
2023-03-07T22:33:56.150Z,40.10
2023-03-07T22:36:25.110Z,44.20
2023-03-07T22:38:55.711Z,43.40
2023-03-07T22:41:25.420Z,46.10
2023-03-07T22:43:53.950Z,45.90
2023-03-07T22:46:23.078Z,43.80
2023-03-07T22:48:55.480Z,43.20
2023-03-07T22:51:25.313Z,44.50
2023-03-07T22:53:55.363Z,45.60
2023-03-07T22:56:26.523Z,44.20
2023-03-07T22:58:55.460Z,48.40
2023-03-07T23:01:26.848Z,45.70
2023-03-07T23:03:57.909Z,40.40
2023-03-07T23:06:29.906Z,41.70
2023-03-07T23:08:59.983Z,45.90
2023-03-07T23:11:30.596Z,45.20
2023-03-07T23:13:59.457Z,45.00
2023-03-07T23:16:30.695Z,49.40
2023-03-07T23:19:00.605Z,39.00
2023-03-07T23:21:31.579Z,45.70
2023-03-07T23:24:01.068Z,43.20
2023-03-07T23:26:32.900Z,51.90
2023-03-07T23:29:01.528Z,46.60
2023-03-07T23:31:33.228Z,44.30
2023-03-07T23:34:04.342Z,43.60
2023-03-07T23:36:33.133Z,43.90
2023-03-07T23:39:01.722Z,45.30
2023-03-07T23:41:29.838Z,48.00
2023-03-07T23:44:00.673Z,45.20
2023-03-07T23:46:29.928Z,45.70
2023-03-07T23:48:58.488Z,47.70
2023-03-07T23:51:27.257Z,43.30
2023-03-07T23:53:55.495Z,43.60
2023-03-07T23:56:24.185Z,44.30
2023-03-07T23:58:54.233Z,50.60
